createdAt,value
2022-11-14T00:01:59.863Z,14.80
2022-11-14T00:04:51.725Z,14.63
2022-11-14T00:07:42.838Z,13.65
2022-11-14T00:10:34.297Z,13.50
2022-11-14T00:13:25.200Z,14.02
2022-11-14T00:16:16.484Z,12.48
2022-11-14T00:19:07.247Z,15.05
2022-11-14T00:22:00.579Z,13.45
2022-11-14T00:24:51.900Z,10.48
2022-11-14T00:27:43.161Z,13.10
2022-11-14T00:30:35.109Z,11.43
2022-11-14T00:33:26.657Z,10.68
2022-11-14T00:36:18.198Z,12.37
2022-11-14T00:39:12.908Z,12.82
2022-11-14T00:42:04.181Z,11.40
2022-11-14T00:44:55.492Z,11.88
2022-11-14T00:47:46.354Z,11.85
2022-11-14T00:50:38.382Z,11.73
2022-11-14T00:53:29.202Z,10.38
2022-11-14T00:56:20.425Z,10.73
2022-11-14T00:59:11.376Z,11.43
2022-11-14T01:02:02.632Z,12.30
2022-11-14T01:04:53.474Z,10.45
2022-11-14T01:07:44.676Z,11.68
2022-11-14T01:10:38.713Z,10.68
2022-11-14T01:13:32.348Z,11.50
2022-11-14T01:16:23.824Z,13.90
2022-11-14T01:22:06.736Z,12.95
2022-11-14T01:24:58.828Z,12.30
2022-11-14T01:27:49.664Z,13.55
2022-11-14T01:30:41.025Z,16.05
2022-11-14T01:33:32.018Z,13.70
2022-11-14T01:36:23.269Z,13.13
2022-11-14T01:39:14.131Z,12.57
2022-11-14T01:42:05.348Z,11.10
2022-11-14T01:44:56.240Z,12.80
2022-11-14T01:47:47.520Z,13.10
2022-11-14T01:50:38.321Z,10.52
2022-11-14T01:53:29.924Z,13.30
2022-11-14T01:56:23.748Z,11.10
2022-11-14T01:59:17.285Z,10.95
2022-11-14T02:02:14.242Z,10.23
2022-11-14T02:05:10.853Z,10.80
2022-11-14T02:08:02.163Z,10.13
2022-11-14T02:10:53.275Z,11.40
2022-11-14T02:13:44.294Z,8.73
2022-11-14T02:16:35.962Z,9.18
2022-11-14T02:19:40.262Z,9.85
2022-11-14T02:22:31.660Z,10.55
2022-11-14T02:25:22.479Z,11.88
2022-11-14T02:28:13.723Z,9.40
2022-11-14T02:31:04.796Z,9.80
2022-11-14T02:33:56.142Z,12.57
2022-11-14T02:36:46.956Z,10.70
2022-11-14T02:39:39.290Z,9.57
2022-11-14T02:45:21.498Z,12.70
2022-11-14T02:48:12.291Z,12.23
2022-11-14T02:51:03.690Z,14.48
2022-11-14T02:53:54.658Z,13.53
2022-11-14T02:56:46.400Z,11.70
2022-11-14T02:59:37.627Z,12.57
2022-11-14T03:02:28.864Z,13.55
2022-11-14T03:05:19.927Z,11.00
2022-11-14T03:08:11.570Z,11.75
2022-11-14T03:11:06.057Z,11.45
2022-11-14T03:13:57.364Z,9.98
2022-11-14T03:16:48.202Z,8.32
2022-11-14T03:19:39.309Z,8.63
2022-11-14T03:22:30.133Z,9.80
2022-11-14T03:25:21.251Z,9.05
2022-11-14T03:28:12.025Z,11.25
2022-11-14T03:31:03.775Z,10.88
2022-11-14T03:33:54.582Z,10.95
2022-11-14T03:36:46.117Z,10.13
2022-11-14T03:39:37.306Z,10.18
2022-11-14T03:42:28.636Z,10.60
2022-11-14T03:45:19.560Z,7.82
2022-11-14T03:48:10.843Z,10.02
2022-11-14T03:51:01.717Z,11.73
2022-11-14T03:53:53.328Z,10.95
2022-11-14T03:56:44.379Z,10.20
2022-11-14T03:59:35.570Z,9.73
2022-11-14T04:02:26.342Z,11.10
2022-11-14T04:05:17.670Z,11.00
2022-11-14T04:08:08.508Z,10.60
2022-11-14T04:10:59.692Z,11.23
2022-11-14T04:13:51.104Z,9.47
2022-11-14T04:16:42.648Z,11.23
2022-11-14T04:19:33.459Z,12.55
2022-11-14T04:22:24.686Z,11.80
2022-11-14T04:25:15.427Z,10.73
2022-11-14T04:28:06.823Z,11.52
2022-11-14T04:30:57.741Z,8.25
2022-11-14T04:33:49.000Z,10.13
2022-11-14T04:36:39.951Z,10.18
2022-11-14T04:39:31.297Z,9.95
2022-11-14T04:42:22.081Z,9.93
2022-11-14T04:45:13.258Z,8.83
2022-11-14T04:48:04.516Z,11.38
2022-11-14T04:50:55.677Z,11.02
2022-11-14T04:53:46.420Z,11.38
2022-11-14T04:56:37.898Z,12.37
2022-11-14T04:59:28.893Z,13.30
2022-11-14T05:02:19.926Z,13.70
2022-11-14T05:05:11.002Z,15.40
2022-11-14T05:08:02.251Z,12.82
2022-11-14T05:10:53.118Z,11.75
2022-11-14T05:13:44.700Z,14.25
2022-11-14T05:16:35.824Z,15.73
2022-11-14T05:19:27.545Z,12.32
2022-11-14T05:22:18.736Z,14.20
2022-11-14T05:25:10.353Z,16.45
2022-11-14T05:28:02.585Z,13.93
2022-11-14T05:30:53.919Z,15.27
2022-11-14T05:33:45.365Z,12.77
2022-11-14T05:36:36.668Z,12.70
2022-11-14T05:39:27.593Z,13.93
2022-11-14T05:42:18.752Z,9.80
2022-11-14T05:45:10.036Z,11.63
2022-11-14T05:48:01.607Z,11.05
2022-11-14T05:50:56.332Z,12.68
2022-11-14T05:53:47.526Z,10.85
2022-11-14T05:56:38.628Z,14.13
2022-11-14T05:59:30.165Z,10.60
2022-11-14T06:02:21.397Z,12.70
2022-11-14T06:05:13.286Z,14.52
2022-11-14T06:08:04.389Z,13.85
2022-11-14T06:10:56.048Z,13.55
2022-11-14T06:13:47.569Z,14.85
2022-11-14T06:16:39.164Z,15.23
2022-11-14T06:19:30.307Z,12.95
2022-11-14T06:22:21.390Z,13.50
2022-11-14T06:25:12.361Z,11.20
2022-11-14T06:28:03.906Z,11.70
2022-11-14T06:30:59.180Z,12.87
2022-11-14T06:33:50.681Z,12.20
2022-11-14T06:36:41.958Z,11.80
2022-11-14T06:39:33.154Z,8.38
2022-11-14T06:42:24.009Z,12.38
2022-11-14T06:45:15.324Z,10.55
2022-11-14T06:48:07.198Z,11.70
2022-11-14T06:50:59.199Z,9.43
2022-11-14T06:53:50.153Z,9.85
2022-11-14T06:56:41.449Z,9.43
2022-11-14T06:59:32.358Z,10.55
2022-11-14T07:02:23.556Z,10.93
2022-11-14T07:05:14.707Z,9.32
2022-11-14T07:08:06.168Z,11.75
2022-11-14T07:11:07.563Z,10.10
2022-11-14T07:16:49.931Z,9.88
2022-11-14T07:19:44.247Z,10.40
2022-11-14T07:22:35.502Z,9.82
2022-11-14T07:25:27.040Z,12.30
2022-11-14T07:28:18.165Z,12.87
2022-11-14T07:31:13.927Z,11.13
2022-11-14T07:34:06.396Z,12.20
2022-11-14T07:36:57.825Z,14.20
2022-11-14T07:39:49.075Z,12.98
2022-11-14T07:45:31.613Z,14.77
2022-11-14T07:48:23.930Z,12.10
2022-11-14T07:51:16.859Z,14.30
2022-11-14T07:54:10.689Z,14.65
2022-11-14T07:57:01.842Z,13.50
2022-11-14T07:59:53.226Z,13.65
2022-11-14T08:02:45.896Z,14.10
2022-11-14T08:05:37.603Z,13.48
2022-11-14T08:08:28.786Z,14.90
2022-11-14T08:11:40.191Z,15.50
2022-11-14T08:14:31.348Z,13.35
2022-11-14T08:17:22.949Z,14.02
2022-11-14T08:20:14.056Z,10.85
2022-11-14T08:23:07.347Z,14.10
2022-11-14T08:26:01.427Z,11.25
2022-11-14T08:28:54.821Z,13.77
2022-11-14T08:31:46.170Z,11.80
2022-11-14T08:34:37.330Z,13.13
2022-11-14T08:37:28.192Z,13.40
2022-11-14T08:40:19.581Z,12.77
2022-11-14T08:43:12.022Z,12.07
2022-11-14T08:46:04.578Z,12.68
2022-11-14T08:48:55.426Z,14.68
2022-11-14T08:51:46.617Z,13.82
2022-11-14T08:54:37.697Z,14.48
2022-11-14T08:57:29.364Z,18.90
2022-11-14T09:00:20.428Z,13.73
2022-11-14T09:03:14.428Z,12.80
2022-11-14T09:06:06.058Z,13.55
2022-11-14T09:08:58.120Z,13.30
2022-11-14T09:11:49.112Z,10.63
2022-11-14T09:14:40.229Z,14.65
2022-11-14T09:17:31.179Z,11.40
2022-11-14T09:20:25.901Z,13.10
2022-11-14T09:23:21.406Z,12.15
2022-11-14T09:26:13.323Z,12.07
2022-11-14T09:29:06.849Z,14.65
2022-11-14T09:31:58.774Z,13.95
2022-11-14T09:34:50.166Z,16.70
2022-11-14T09:40:41.577Z,13.85
2022-11-14T09:43:35.936Z,18.17
2022-11-14T09:46:32.211Z,14.52
2022-11-14T09:49:35.891Z,13.38
2022-11-14T09:52:27.622Z,14.70
2022-11-14T09:55:21.500Z,14.73
2022-11-14T09:58:20.548Z,12.95
2022-11-14T10:01:18.307Z,14.05
2022-11-14T10:04:23.152Z,14.25
2022-11-14T10:07:26.613Z,11.40
2022-11-14T10:10:38.812Z,14.35
2022-11-14T10:13:33.854Z,13.63
2022-11-14T10:16:30.924Z,12.40
2022-11-14T10:19:42.823Z,15.02
2022-11-14T10:22:43.185Z,13.05
2022-11-14T10:25:49.480Z,12.65
2022-11-14T10:28:54.398Z,13.55
2022-11-14T10:31:45.910Z,13.15
2022-11-14T10:34:42.522Z,11.02
2022-11-14T10:37:39.864Z,11.75
2022-11-14T10:40:38.514Z,11.07
2022-11-14T10:43:35.545Z,11.02
2022-11-14T10:46:32.833Z,10.10
2022-11-14T10:49:25.305Z,10.27
2022-11-14T10:52:18.669Z,8.93
2022-11-14T10:55:24.812Z,9.88
2022-11-14T10:58:29.004Z,9.05
2022-11-14T11:01:35.895Z,8.90
2022-11-14T11:04:29.255Z,8.23
2022-11-14T11:07:43.917Z,10.02
2022-11-14T11:10:54.259Z,9.57
2022-11-14T11:13:56.113Z,6.82
2022-11-14T11:16:48.285Z,7.07
2022-11-14T11:19:40.062Z,6.95
2022-11-14T11:22:36.775Z,7.65
2022-11-14T11:25:29.215Z,7.75
2022-11-14T11:28:21.159Z,7.78
2022-11-14T11:31:12.601Z,7.13
2022-11-14T11:34:03.511Z,6.60
2022-11-14T11:36:59.546Z,6.68
2022-11-14T11:39:55.731Z,8.27
2022-11-14T11:46:17.265Z,8.02
2022-11-14T11:49:16.765Z,8.63
2022-11-14T11:52:18.017Z,7.88
2022-11-14T11:55:09.225Z,7.53
2022-11-14T11:58:05.772Z,7.55
2022-11-14T12:00:57.594Z,6.40
2022-11-14T12:03:50.464Z,6.80
2022-11-14T12:06:46.028Z,5.35
2022-11-14T12:10:09.224Z,6.15
2022-11-14T12:13:03.994Z,5.93
2022-11-14T12:15:58.101Z,8.18
2022-11-14T12:19:07.927Z,6.65
2022-11-14T12:21:59.216Z,7.38
2022-11-14T12:24:50.579Z,7.72
2022-11-14T12:27:42.467Z,6.88
2022-11-14T12:30:34.898Z,8.02
2022-11-14T12:33:34.493Z,8.77
2022-11-14T12:36:30.311Z,9.05
2022-11-14T12:39:23.139Z,8.70
2022-11-14T12:42:19.948Z,8.30
2022-11-14T12:45:29.809Z,7.45
2022-11-14T12:48:22.733Z,7.15
2022-11-14T12:51:34.235Z,7.03
2022-11-14T12:54:45.254Z,7.90
2022-11-14T12:57:49.391Z,8.38
2022-11-14T13:00:46.839Z,8.63
2022-11-14T13:03:49.708Z,9.38
2022-11-14T13:06:44.272Z,9.13
2022-11-14T13:09:54.278Z,7.68
2022-11-14T13:13:19.057Z,7.82
2022-11-14T13:16:43.180Z,8.18
2022-11-14T13:19:53.275Z,6.80
2022-11-14T13:22:45.444Z,7.45
2022-11-14T13:25:36.840Z,8.02
2022-11-14T13:28:46.933Z,7.95
2022-11-14T13:31:46.693Z,8.07
2022-11-14T13:34:40.746Z,7.78
2022-11-14T13:37:32.078Z,10.15
2022-11-14T13:40:22.984Z,8.05
2022-11-14T13:43:26.135Z,9.60
2022-11-14T13:46:33.179Z,8.43
2022-11-14T13:49:43.487Z,8.70
2022-11-14T13:52:40.494Z,8.25
2022-11-14T13:55:38.331Z,7.68
2022-11-14T13:58:35.067Z,8.38
2022-11-14T14:01:29.928Z,7.82
2022-11-14T14:04:39.744Z,8.48
2022-11-14T14:07:50.084Z,8.77
2022-11-14T14:10:47.594Z,8.00
2022-11-14T14:13:57.432Z,8.27
2022-11-14T14:16:57.895Z,9.23
2022-11-14T14:19:49.231Z,9.73
2022-11-14T14:22:59.041Z,10.13
2022-11-14T14:25:50.367Z,8.65
2022-11-14T14:28:50.447Z,8.67
2022-11-14T14:31:42.306Z,9.85
2022-11-14T14:34:34.610Z,8.88
2022-11-14T14:37:27.454Z,9.20
2022-11-14T14:40:29.327Z,8.73
2022-11-14T14:43:41.047Z,8.68
2022-11-14T14:46:34.065Z,9.52
2022-11-14T14:49:28.346Z,9.80
2022-11-14T14:52:20.803Z,11.15
2022-11-14T14:55:23.890Z,9.77
2022-11-14T14:58:27.454Z,9.90
2022-11-14T15:01:20.724Z,10.05
2022-11-14T15:04:14.683Z,10.48
2022-11-14T15:07:06.256Z,11.40
2022-11-14T15:10:02.139Z,11.93
2022-11-14T15:12:54.073Z,11.65
2022-11-14T15:15:44.924Z,10.27
2022-11-14T15:18:36.311Z,11.32
2022-11-14T15:21:28.328Z,13.32
2022-11-14T15:24:21.101Z,12.50
2022-11-14T15:30:05.243Z,15.05
2022-11-14T15:35:47.646Z,14.25
2022-11-14T15:38:45.904Z,14.05
2022-11-14T15:41:37.642Z,13.25
2022-11-14T15:44:32.473Z,12.70
2022-11-14T15:47:30.929Z,14.05
2022-11-14T15:50:25.641Z,15.90
2022-11-14T15:53:24.727Z,15.98
2022-11-14T15:56:15.670Z,15.70
2022-11-14T15:59:06.865Z,15.73
2022-11-14T16:01:59.585Z,16.33
2022-11-14T16:04:52.464Z,14.35
2022-11-14T16:10:34.478Z,14.32
2022-11-14T16:13:25.424Z,16.40
2022-11-14T16:16:16.622Z,16.43
2022-11-14T16:19:08.337Z,17.20
2022-11-14T16:22:03.120Z,15.57
2022-11-14T16:24:54.726Z,16.15
2022-11-14T16:27:46.699Z,17.35
2022-11-14T16:30:37.393Z,18.73
2022-11-14T16:33:28.891Z,17.85
2022-11-14T16:36:21.035Z,17.70
2022-11-14T16:39:13.823Z,16.08
2022-11-14T16:42:04.890Z,14.07
2022-11-14T16:45:00.802Z,17.63
2022-11-14T16:47:51.872Z,19.15
2022-11-14T16:50:43.135Z,16.83
2022-11-14T16:53:33.912Z,14.98
2022-11-14T16:56:25.203Z,15.18
2022-11-14T16:59:15.978Z,14.48
2022-11-14T17:02:08.550Z,13.57
2022-11-14T17:04:59.824Z,14.15
2022-11-14T17:07:51.032Z,12.43
2022-11-14T17:10:45.643Z,14.75
2022-11-14T17:13:37.940Z,15.02
2022-11-14T17:16:29.169Z,15.45
2022-11-14T17:19:20.671Z,16.67
2022-11-14T17:22:15.168Z,18.70
2022-11-14T17:25:06.958Z,15.80
2022-11-14T17:27:58.028Z,15.03
2022-11-14T17:30:49.188Z,16.00
2022-11-14T17:33:39.974Z,14.82
2022-11-14T17:36:31.394Z,14.18
2022-11-14T17:39:23.197Z,15.90
2022-11-14T17:42:14.611Z,14.70
2022-11-14T17:45:06.001Z,15.27
2022-11-14T17:47:57.606Z,16.27
2022-11-14T17:50:48.424Z,17.20
2022-11-14T17:53:39.923Z,16.20
2022-11-14T17:56:31.241Z,16.67
2022-11-14T17:59:22.484Z,15.25
2022-11-14T18:02:14.321Z,16.10
2022-11-14T18:05:06.138Z,17.60
2022-11-14T18:07:57.243Z,17.70
2022-11-14T18:10:48.373Z,16.90
2022-11-14T18:13:40.049Z,17.17
2022-11-14T18:16:57.418Z,17.63
2022-11-14T18:19:43.332Z,17.23
2022-11-14T18:22:34.789Z,16.60
2022-11-14T18:25:26.041Z,15.63
2022-11-14T18:28:17.550Z,15.88
2022-11-14T18:31:11.112Z,16.40
2022-11-14T18:34:03.192Z,18.83
2022-11-14T18:42:36.518Z,17.15
2022-11-14T18:45:27.984Z,16.55
2022-11-14T18:48:18.781Z,17.60
2022-11-14T18:51:11.964Z,17.45
2022-11-14T18:54:02.925Z,18.48
2022-11-14T18:56:54.484Z,16.77
2022-11-14T19:02:36.781Z,18.65
2022-11-14T19:05:27.816Z,20.33
2022-11-14T19:11:34.004Z,17.38
2022-11-14T19:14:25.368Z,17.30
2022-11-14T19:17:21.159Z,18.52
2022-11-14T19:20:14.491Z,16.67
2022-11-14T19:23:05.883Z,17.40
2022-11-14T19:26:01.104Z,19.20
2022-11-14T19:28:56.477Z,17.02
2022-11-14T19:31:47.784Z,17.60
2022-11-14T19:34:38.859Z,15.83
2022-11-14T19:37:30.325Z,15.07
2022-11-14T19:40:21.172Z,16.20
2022-11-14T19:43:12.537Z,16.20
2022-11-14T19:46:04.331Z,13.60
2022-11-14T19:48:59.972Z,15.93
2022-11-14T19:51:51.447Z,18.00
2022-11-14T19:54:42.903Z,19.02
2022-11-14T19:57:34.321Z,16.25
2022-11-14T20:00:26.105Z,15.82
2022-11-14T20:03:17.100Z,15.48
2022-11-14T20:06:15.984Z,14.88
2022-11-14T20:09:08.404Z,15.82
2022-11-14T20:11:59.885Z,15.57
2022-11-14T20:14:50.677Z,17.17
2022-11-14T20:17:41.738Z,16.35
2022-11-14T20:20:34.033Z,13.20
2022-11-14T20:23:25.254Z,14.35
2022-11-14T20:26:16.664Z,12.68
2022-11-14T20:29:08.310Z,14.93
2022-11-14T20:31:59.360Z,15.82
2022-11-14T20:34:50.927Z,14.80
2022-11-14T20:37:42.193Z,17.35
2022-11-14T20:40:34.282Z,15.82
2022-11-14T20:43:25.596Z,18.05
2022-11-14T20:46:21.877Z,15.98
2022-11-14T20:49:13.061Z,13.63
2022-11-14T20:52:05.944Z,16.67
2022-11-14T20:54:57.219Z,16.23
2022-11-14T20:57:48.695Z,17.70
2022-11-14T21:00:39.424Z,16.15
2022-11-14T21:03:31.154Z,17.05
2022-11-14T21:06:22.294Z,16.75
2022-11-14T21:09:13.533Z,14.50
2022-11-14T21:12:04.447Z,16.60
2022-11-14T21:14:55.945Z,15.75
2022-11-14T21:17:47.066Z,16.67
2022-11-14T21:20:38.330Z,17.83
2022-11-14T21:23:30.006Z,21.83
2022-11-14T21:26:25.952Z,16.25
2022-11-14T21:29:16.985Z,16.90
2022-11-14T21:32:08.351Z,15.07
2022-11-14T21:34:59.315Z,17.85
2022-11-14T21:37:50.693Z,19.08
2022-11-14T21:40:41.960Z,19.15
2022-11-14T21:43:34.018Z,17.02
2022-11-14T21:46:25.778Z,14.85
2022-11-14T21:49:17.333Z,15.57
2022-11-14T21:52:08.148Z,13.63
2022-11-14T21:54:59.465Z,16.48
2022-11-14T21:57:54.043Z,13.52
2022-11-14T22:00:45.503Z,15.57
2022-11-14T22:03:54.961Z,13.85
2022-11-14T22:06:46.592Z,13.50
2022-11-14T22:09:42.578Z,13.13
2022-11-14T22:12:36.574Z,15.65
2022-11-14T22:15:27.659Z,17.27
2022-11-14T22:18:19.335Z,13.68
2022-11-14T22:21:10.927Z,17.90
2022-11-14T22:24:02.245Z,16.73
2022-11-14T22:26:53.229Z,14.30
2022-11-14T22:29:44.682Z,14.20
2022-11-14T22:32:35.359Z,14.77
2022-11-14T22:35:26.700Z,14.00
2022-11-14T22:38:17.959Z,13.90
2022-11-14T22:41:16.924Z,12.85
2022-11-14T22:44:08.095Z,13.80
2022-11-14T22:46:59.531Z,12.70
2022-11-14T22:49:50.622Z,14.30
2022-11-14T22:52:41.920Z,13.52
2022-11-14T22:55:32.764Z,13.98
2022-11-14T22:58:24.011Z,14.50
2022-11-14T23:01:15.133Z,13.43
2022-11-14T23:04:06.495Z,13.68
2022-11-14T23:06:57.684Z,12.40
2022-11-14T23:09:48.720Z,12.70
2022-11-14T23:12:39.628Z,14.02
2022-11-14T23:15:30.948Z,11.63
2022-11-14T23:18:23.332Z,12.18
2022-11-14T23:21:19.861Z,12.88
2022-11-14T23:24:13.683Z,12.40
2022-11-14T23:27:04.945Z,13.85
2022-11-14T23:29:56.018Z,15.37
2022-11-14T23:32:47.525Z,13.10
2022-11-14T23:35:38.546Z,12.85
2022-11-14T23:38:32.841Z,14.70
2022-11-14T23:41:25.760Z,11.70
2022-11-14T23:44:17.192Z,12.40
2022-11-14T23:47:08.071Z,13.10
2022-11-14T23:49:59.667Z,12.30
2022-11-14T23:52:50.824Z,13.70
2022-11-14T23:55:42.525Z,13.70
2022-11-14T23:58:33.681Z,13.13
